createdAt,value
2023-05-04T04:04:13.370Z,83.90
2023-05-04T04:06:43.415Z,85.02
2023-05-04T04:09:12.163Z,83.66
2023-05-04T04:11:40.257Z,82.84
2023-05-04T04:14:08.355Z,76.51
2023-05-04T04:16:36.841Z,78.70
2023-05-04T04:19:04.813Z,74.99
2023-05-04T04:21:34.276Z,71.70
2023-05-04T04:24:02.617Z,65.07
2023-05-04T04:26:30.468Z,64.64
2023-05-04T04:28:58.226Z,61.79
2023-05-04T04:31:26.635Z,59.84
2023-05-04T04:33:54.565Z,59.38
2023-05-04T04:36:22.863Z,60.46
2023-05-04T04:38:52.798Z,61.54
2023-05-04T04:41:20.884Z,58.73
2023-05-04T04:43:48.758Z,58.18
2023-05-04T04:46:17.520Z,58.85
2023-05-04T04:48:45.472Z,57.39
2023-05-04T04:51:13.638Z,59.03
2023-05-04T04:53:42.207Z,50.99
2023-05-04T04:56:11.718Z,47.82
2023-05-04T04:58:39.464Z,46.66
2023-05-04T05:01:08.253Z,55.66
2023-05-04T05:03:36.450Z,49.02
2023-05-04T05:06:04.322Z,52.58
2023-05-04T05:08:34.407Z,50.87
2023-05-04T05:11:02.099Z,50.06
2023-05-04T05:13:31.430Z,48.92
2023-05-04T05:15:59.796Z,45.35
2023-05-04T05:18:29.450Z,43.10
2023-05-04T05:20:57.865Z,46.50
2023-05-04T05:23:26.019Z,43.53
2023-05-04T05:25:56.133Z,42.39
2023-05-04T05:28:24.717Z,43.28
2023-05-04T05:30:54.803Z,41.86
2023-05-04T05:33:23.730Z,41.60
2023-05-04T05:35:52.636Z,44.10
2023-05-04T05:38:21.939Z,44.95
2023-05-04T05:40:49.757Z,39.96
2023-05-04T05:43:17.900Z,39.11
2023-05-04T05:45:46.278Z,38.04
2023-05-04T05:48:15.752Z,40.22
2023-05-04T05:50:43.520Z,37.18
2023-05-04T05:53:12.006Z,37.06
2023-05-04T05:55:39.761Z,34.79
2023-05-04T05:58:08.686Z,34.06
2023-05-04T06:00:36.997Z,30.78
2023-05-04T06:03:05.684Z,31.12
2023-05-04T06:05:36.652Z,31.02
2023-05-04T06:08:04.610Z,31.33
2023-05-04T06:10:33.530Z,32.63
2023-05-04T06:13:01.927Z,29.48
2023-05-04T06:15:30.190Z,27.14
2023-05-04T06:17:58.193Z,26.42
2023-05-04T06:20:26.572Z,27.84
2023-05-04T06:22:55.947Z,25.99
2023-05-04T06:25:23.910Z,26.48
2023-05-04T06:27:53.006Z,25.03
2023-05-04T06:30:24.306Z,27.57
2023-05-04T06:32:52.344Z,27.23
2023-05-04T06:35:20.971Z,29.67
2023-05-04T06:37:48.899Z,25.36
2023-05-04T06:40:20.740Z,25.16
2023-05-04T06:42:49.276Z,26.40
2023-05-04T06:45:17.421Z,25.67
2023-05-04T06:47:45.793Z,29.28
2023-05-04T06:50:14.860Z,26.56
2023-05-04T06:52:45.292Z,27.76
2023-05-04T06:55:13.670Z,23.26
2023-05-04T06:57:43.672Z,25.16
2023-05-04T07:00:12.691Z,25.22
2023-05-04T07:02:40.654Z,26.16
2023-05-04T07:05:09.498Z,24.11
2023-05-04T07:07:38.180Z,24.06
2023-05-04T07:10:07.046Z,24.24
2023-05-04T07:12:35.681Z,24.66
2023-05-04T07:15:06.701Z,26.01
2023-05-04T07:17:34.824Z,24.52
2023-05-04T07:20:03.894Z,24.61
2023-05-04T07:22:32.850Z,27.54
2023-05-04T07:25:01.421Z,24.38
2023-05-04T07:27:31.993Z,23.23
2023-05-04T07:30:01.778Z,22.40
2023-05-04T07:32:31.514Z,21.73
2023-05-04T07:34:59.794Z,22.31
2023-05-04T07:37:27.771Z,23.46
2023-05-04T07:39:56.376Z,22.11
2023-05-04T07:42:24.403Z,22.42
2023-05-04T07:44:53.338Z,21.93
2023-05-04T07:47:22.728Z,23.18
2023-05-04T07:49:52.322Z,21.61
2023-05-04T07:52:20.506Z,21.54
2023-05-04T07:54:49.156Z,23.68
2023-05-04T07:57:17.530Z,23.69
2023-05-04T07:59:45.662Z,21.02
2023-05-04T08:02:14.127Z,26.44
2023-05-04T08:04:42.163Z,24.41
2023-05-04T08:07:11.794Z,20.42
2023-05-04T08:09:40.336Z,20.23
2023-05-04T08:12:09.892Z,22.07
2023-05-04T08:14:38.458Z,21.46
2023-05-04T08:17:07.019Z,23.57
2023-05-04T08:19:35.451Z,21.19
2023-05-04T08:22:04.565Z,20.21
2023-05-04T08:24:34.018Z,20.81
2023-05-04T08:27:07.822Z,21.09
2023-05-04T08:29:38.029Z,21.98
2023-05-04T08:32:07.728Z,20.27
2023-05-04T08:34:36.656Z,22.16
2023-05-04T08:37:06.359Z,22.16
2023-05-04T08:39:35.810Z,20.51
2023-05-04T08:42:03.840Z,20.59
2023-05-04T08:44:32.420Z,21.93
2023-05-04T08:47:00.432Z,21.60
2023-05-04T08:49:29.172Z,20.59
2023-05-04T08:51:58.166Z,21.62
2023-05-04T08:54:27.334Z,21.17
2023-05-04T08:56:59.218Z,23.78
2023-05-04T08:59:29.781Z,22.44
2023-05-04T09:02:00.405Z,19.42
2023-05-04T09:04:29.670Z,18.50
2023-05-04T09:06:58.547Z,19.24
2023-05-04T09:09:29.580Z,18.32
2023-05-04T09:11:59.722Z,21.42
2023-05-04T09:14:36.106Z,21.15
2023-05-04T09:17:05.086Z,20.13
2023-05-04T09:19:34.894Z,18.90
2023-05-04T09:22:03.939Z,19.39
2023-05-04T09:24:31.952Z,19.84
2023-05-04T09:27:11.390Z,20.14
2023-05-04T09:29:40.773Z,18.25
2023-05-04T09:32:14.764Z,17.33
2023-05-04T09:34:52.936Z,18.06
2023-05-04T09:37:22.421Z,18.04
2023-05-04T09:39:55.437Z,18.32
2023-05-04T09:42:27.344Z,20.33
2023-05-04T09:45:03.231Z,20.97
2023-05-04T09:47:36.318Z,21.16
2023-05-04T09:50:20.758Z,19.18
2023-05-04T09:52:50.479Z,17.58
2023-05-04T09:55:20.343Z,18.20
2023-05-04T09:57:51.969Z,21.20
2023-05-04T10:00:21.477Z,20.09
2023-05-04T10:02:50.226Z,17.50
2023-05-04T10:05:24.716Z,17.68
2023-05-04T10:07:53.319Z,17.60
2023-05-04T10:10:21.938Z,16.34
2023-05-04T10:12:53.293Z,17.90
2023-05-04T10:15:24.745Z,19.61
2023-05-04T10:18:05.003Z,18.92
2023-05-04T10:20:55.914Z,20.50
2023-05-04T10:23:45.789Z,18.99
2023-05-04T10:26:36.289Z,18.08
2023-05-04T10:29:14.552Z,19.65
2023-05-04T10:31:46.107Z,19.18
2023-05-04T10:34:26.476Z,16.34
2023-05-04T10:36:55.900Z,16.83
2023-05-04T10:39:25.008Z,16.99
2023-05-04T10:42:02.241Z,17.50
2023-05-04T10:44:33.114Z,19.97
2023-05-04T10:47:04.057Z,20.52
2023-05-04T10:49:34.553Z,18.61
2023-05-04T10:52:14.180Z,17.78
2023-05-04T10:54:44.323Z,20.49
2023-05-04T10:57:18.214Z,19.57
2023-05-04T10:59:58.996Z,18.96
2023-05-04T11:02:32.409Z,18.98
2023-05-04T11:05:04.808Z,19.53
2023-05-04T11:07:38.866Z,19.22
2023-05-04T11:10:09.770Z,19.75
2023-05-04T11:12:40.438Z,19.50
2023-05-04T11:15:11.790Z,20.43
2023-05-04T11:17:47.392Z,20.33
2023-05-04T11:20:23.191Z,18.22
2023-05-04T11:22:52.572Z,19.14
2023-05-04T11:25:29.870Z,18.16
2023-05-04T11:28:01.332Z,18.15
2023-05-04T11:30:36.036Z,18.75
2023-05-04T11:33:13.014Z,18.24
2023-05-04T11:35:44.109Z,19.77
2023-05-04T11:38:15.058Z,18.96
2023-05-04T11:40:49.985Z,19.04
2023-05-04T11:43:20.356Z,19.24
2023-05-04T11:45:51.314Z,18.96
2023-05-04T11:48:21.793Z,18.58
2023-05-04T11:50:52.402Z,19.83
2023-05-04T11:53:23.838Z,18.46
2023-05-04T11:55:54.953Z,20.48
2023-05-04T11:58:27.457Z,20.05
2023-05-04T12:01:01.325Z,19.46
2023-05-04T12:03:51.304Z,19.98
2023-05-04T12:06:32.751Z,20.09
2023-05-04T12:09:06.596Z,21.03
2023-05-04T12:11:38.719Z,19.98
2023-05-04T12:14:10.271Z,19.93
2023-05-04T12:16:43.447Z,20.39
2023-05-04T12:19:14.715Z,21.25
2023-05-04T12:21:52.452Z,19.58
2023-05-04T12:24:23.878Z,19.98
2023-05-04T12:26:53.465Z,22.35
2023-05-04T12:29:22.721Z,21.53
2023-05-04T12:31:53.786Z,20.55
2023-05-04T12:34:22.370Z,20.89
2023-05-04T12:36:54.160Z,21.00
2023-05-04T12:39:23.081Z,20.01
2023-05-04T12:41:52.021Z,20.05
2023-05-04T12:44:21.139Z,21.89
2023-05-04T12:46:50.114Z,22.02
2023-05-04T12:49:24.571Z,21.91
2023-05-04T12:51:54.246Z,21.32
2023-05-04T12:54:23.646Z,21.21
2023-05-04T12:56:54.071Z,21.87
2023-05-04T12:59:24.010Z,20.84
2023-05-04T13:01:53.245Z,20.29
2023-05-04T13:04:26.595Z,19.46
2023-05-04T13:06:55.379Z,20.91
2023-05-04T13:09:24.935Z,21.81
2023-05-04T13:11:54.519Z,21.33
2023-05-04T13:14:23.591Z,21.54
2023-05-04T13:16:52.223Z,22.15
2023-05-04T13:19:23.258Z,22.23
2023-05-04T13:21:52.265Z,22.05
2023-05-04T13:24:22.378Z,22.17
2023-05-04T13:26:50.953Z,22.65
2023-05-04T13:29:20.317Z,22.18
2023-05-04T13:31:49.062Z,22.24
2023-05-04T13:34:18.603Z,22.25
2023-05-04T13:36:48.423Z,21.87
2023-05-04T13:39:16.504Z,21.20
2023-05-04T13:41:44.875Z,21.61
2023-05-04T13:44:12.785Z,20.90
2023-05-04T13:46:41.626Z,21.28
2023-05-04T13:49:10.036Z,21.27
2023-05-04T13:51:38.802Z,21.21
2023-05-04T13:54:09.393Z,21.14
2023-05-04T13:56:39.804Z,21.02
2023-05-04T13:59:08.504Z,20.64
2023-05-04T14:01:37.322Z,20.20
2023-05-04T14:04:07.030Z,21.10
2023-05-04T14:06:35.106Z,21.54
2023-05-04T14:09:03.527Z,21.58
2023-05-04T14:11:33.451Z,21.78
2023-05-04T14:14:01.348Z,22.46
2023-05-04T14:16:29.510Z,22.42
2023-05-04T14:18:58.258Z,22.92
2023-05-04T14:21:26.396Z,22.72
2023-05-04T14:23:54.543Z,23.00
2023-05-04T14:26:22.956Z,23.45
2023-05-04T14:28:52.489Z,22.38
2023-05-04T14:31:20.633Z,23.11
2023-05-04T14:33:48.941Z,24.37
2023-05-04T14:36:17.000Z,23.67
2023-05-04T14:38:44.857Z,23.50
2023-05-04T14:41:13.683Z,23.58
2023-05-04T14:43:41.989Z,23.14
2023-05-04T14:46:12.904Z,23.79
2023-05-04T14:48:41.604Z,23.21
2023-05-04T14:51:09.494Z,23.27
2023-05-04T14:53:39.308Z,23.67
2023-05-04T14:56:08.727Z,24.13
2023-05-04T14:58:37.225Z,25.09
2023-05-04T15:01:06.069Z,24.26
2023-05-04T15:03:35.898Z,24.16
2023-05-04T15:06:04.257Z,24.33
2023-05-04T15:08:32.169Z,25.10
2023-05-04T15:11:01.215Z,25.01
2023-05-04T15:13:29.173Z,25.04
2023-05-04T15:15:57.200Z,24.91
2023-05-04T15:18:26.661Z,24.57
2023-05-04T15:20:55.876Z,24.37
2023-05-04T15:23:23.800Z,24.50
2023-05-04T15:25:52.215Z,24.69
2023-05-04T15:28:22.971Z,25.48
2023-05-04T15:30:51.191Z,25.03
2023-05-04T15:33:19.511Z,25.19
2023-05-04T15:35:47.587Z,24.90
2023-05-04T15:38:18.114Z,25.12
2023-05-04T15:40:46.572Z,24.63
2023-05-04T15:43:15.210Z,24.47
2023-05-04T15:45:43.432Z,24.47
2023-05-04T15:48:12.082Z,24.37
2023-05-04T15:50:40.085Z,23.93
2023-05-04T15:53:08.098Z,24.57
2023-05-04T15:55:37.387Z,25.22
2023-05-04T15:58:06.040Z,25.27
2023-05-04T16:00:34.831Z,24.76
2023-05-04T16:03:03.065Z,25.32
2023-05-04T16:05:31.610Z,25.86
2023-05-04T16:08:00.125Z,25.81
2023-05-04T16:10:28.062Z,25.90
2023-05-04T16:13:00.578Z,26.17
2023-05-04T16:15:28.832Z,25.88
2023-05-04T16:17:57.112Z,26.01
2023-05-04T16:20:25.716Z,26.63
2023-05-04T16:22:53.751Z,26.64
2023-05-04T16:25:22.011Z,26.45
2023-05-04T16:27:50.710Z,26.32
2023-05-04T16:30:21.800Z,26.10
2023-05-04T16:32:50.539Z,25.71
2023-05-04T16:35:18.950Z,25.95
2023-05-04T16:37:47.098Z,26.46
2023-05-04T16:40:17.229Z,26.49
2023-05-04T16:42:46.136Z,26.69
2023-05-04T16:45:15.318Z,26.76
2023-05-04T16:47:45.795Z,26.72
2023-05-04T16:50:14.844Z,26.58
2023-05-04T16:52:43.627Z,27.04
2023-05-04T16:55:12.532Z,27.30
2023-05-04T16:57:40.671Z,27.57
2023-05-04T17:00:10.520Z,28.50
2023-05-04T17:02:38.738Z,28.22
2023-05-04T17:05:11.584Z,28.81
2023-05-04T17:07:42.208Z,28.44
2023-05-04T17:10:11.903Z,28.69
2023-05-04T17:12:40.831Z,28.93
2023-05-04T17:15:10.727Z,29.00
2023-05-04T17:17:39.438Z,28.86
2023-05-04T17:20:14.806Z,29.98
2023-05-04T17:22:43.820Z,29.64
2023-05-04T17:25:12.407Z,29.77
2023-05-04T17:27:41.236Z,30.37
2023-05-04T17:30:11.066Z,30.45
2023-05-04T17:32:39.573Z,30.85
2023-05-04T17:35:21.178Z,31.25
2023-05-04T17:37:57.608Z,31.05
2023-05-04T17:40:27.184Z,31.28
2023-05-04T17:42:55.435Z,31.29
2023-05-04T17:45:24.008Z,31.68
2023-05-04T17:47:52.931Z,31.70
2023-05-04T17:50:22.658Z,32.08
2023-05-04T17:52:54.305Z,32.39
2023-05-04T17:55:23.960Z,32.34
2023-05-04T17:57:53.050Z,32.76
2023-05-04T18:00:22.253Z,33.15
2023-05-04T18:02:50.809Z,33.49
2023-05-04T18:05:19.533Z,33.49
2023-05-04T18:07:49.017Z,33.62
2023-05-04T18:10:17.522Z,33.67
2023-05-04T18:12:45.675Z,33.84
2023-05-04T18:15:13.583Z,33.81
2023-05-04T18:17:42.020Z,34.08
2023-05-04T18:20:12.701Z,34.63
2023-05-04T18:22:41.548Z,34.90
2023-05-04T18:25:11.608Z,34.76
2023-05-04T18:27:39.574Z,35.21
2023-05-04T18:30:09.916Z,35.37
2023-05-04T18:32:38.140Z,35.56
2023-05-04T18:35:06.919Z,36.17
2023-05-04T18:37:35.487Z,36.44
2023-05-04T18:40:04.672Z,36.33
2023-05-04T18:42:34.918Z,36.54
2023-05-04T18:45:03.029Z,36.83
2023-05-04T18:47:31.437Z,37.41
2023-05-04T18:50:00.894Z,38.11
2023-05-04T18:52:28.996Z,38.49
2023-05-04T18:54:57.084Z,39.05
2023-05-04T18:57:26.455Z,39.77
2023-05-04T18:59:56.529Z,40.30
2023-05-04T19:02:26.046Z,40.76
2023-05-04T19:04:54.128Z,40.87
2023-05-04T19:07:22.145Z,41.21
2023-05-04T19:09:50.507Z,41.27
2023-05-04T19:12:18.616Z,41.66
2023-05-04T19:14:46.933Z,41.60
2023-05-04T19:17:17.701Z,41.86
2023-05-04T19:19:45.496Z,42.23
2023-05-04T19:22:16.066Z,42.54
2023-05-04T19:24:44.005Z,42.52
2023-05-04T19:27:11.955Z,42.27
2023-05-04T19:29:40.198Z,43.04
2023-05-04T19:32:19.990Z,42.88
2023-05-04T19:34:54.231Z,43.00
2023-05-04T19:37:22.164Z,43.34
2023-05-04T19:39:50.891Z,43.11
2023-05-04T19:42:18.848Z,43.54
2023-05-04T19:44:46.715Z,43.65
2023-05-04T19:47:14.987Z,44.06
2023-05-04T19:49:44.304Z,44.71
2023-05-04T19:52:13.876Z,44.18
2023-05-04T19:54:42.559Z,44.66
2023-05-04T19:57:11.412Z,44.92
2023-05-04T19:59:40.039Z,45.36
2023-05-04T20:02:09.192Z,45.70
2023-05-04T20:04:37.501Z,46.28
2023-05-04T20:07:05.499Z,46.09
2023-05-04T20:09:35.213Z,46.41
2023-05-04T20:12:03.222Z,47.33
2023-05-04T20:14:31.431Z,46.89
2023-05-04T20:16:59.865Z,47.76
2023-05-04T20:19:28.079Z,48.17
2023-05-04T20:21:55.949Z,47.95
2023-05-04T20:24:24.327Z,48.21
2023-05-04T20:26:53.943Z,48.09
2023-05-04T20:29:22.008Z,48.15
2023-05-04T20:31:50.512Z,48.20
2023-05-04T20:34:19.152Z,48.49
2023-05-04T20:36:47.850Z,49.07
2023-05-04T20:39:15.782Z,48.80
2023-05-04T20:41:44.378Z,48.59
2023-05-04T20:44:14.147Z,48.94
2023-05-04T20:46:42.443Z,48.86
2023-05-04T20:49:11.400Z,48.73
2023-05-04T20:51:39.573Z,49.03
2023-05-04T20:54:07.602Z,48.97
2023-05-04T20:56:35.677Z,49.17
2023-05-04T20:59:03.586Z,49.05
2023-05-04T21:01:33.118Z,49.43
2023-05-04T21:04:01.523Z,49.31
2023-05-04T21:06:30.028Z,49.62
2023-05-04T21:08:58.096Z,49.16
2023-05-04T21:11:26.702Z,49.32
2023-05-04T21:13:54.976Z,49.26
2023-05-04T21:16:23.029Z,49.05
2023-05-04T21:18:52.987Z,49.09
2023-05-04T21:21:21.054Z,49.13
2023-05-04T21:23:49.521Z,48.97
2023-05-04T21:26:17.513Z,49.34
2023-05-04T21:28:46.463Z,49.51
2023-05-04T21:31:15.845Z,50.53
2023-05-04T21:33:43.902Z,50.86
2023-05-04T21:36:14.612Z,51.21
2023-05-04T21:38:43.502Z,51.00
2023-05-04T21:41:12.764Z,51.72
2023-05-04T21:43:40.653Z,51.95
2023-05-04T21:46:09.511Z,52.12
2023-05-04T21:48:37.622Z,52.54
2023-05-04T21:51:05.942Z,52.25
2023-05-04T21:53:36.043Z,52.53
2023-05-04T21:56:08.792Z,52.89
2023-05-04T21:58:39.995Z,53.08
2023-05-04T22:01:08.398Z,52.97
2023-05-04T22:03:36.556Z,53.61
2023-05-04T22:06:05.275Z,53.77
2023-05-04T22:08:33.662Z,53.71
2023-05-04T22:11:03.387Z,54.24
2023-05-04T22:13:31.257Z,54.75
2023-05-04T22:15:59.120Z,55.72
2023-05-04T22:18:27.505Z,55.12
2023-05-04T22:20:55.516Z,55.04
2023-05-04T22:23:24.368Z,55.33
2023-05-04T22:25:52.790Z,55.51
2023-05-04T22:28:22.281Z,55.53
2023-05-04T22:30:50.148Z,55.48
2023-05-04T22:33:18.333Z,55.71
2023-05-04T22:35:46.220Z,55.79
2023-05-04T22:38:15.044Z,56.09
2023-05-04T22:40:44.138Z,56.38
2023-05-04T22:43:12.674Z,56.98
2023-05-04T22:45:42.042Z,57.47
2023-05-04T22:48:10.070Z,57.27
2023-05-04T22:50:38.473Z,57.79
2023-05-04T22:53:06.930Z,57.69
2023-05-04T22:55:35.249Z,58.56
2023-05-04T22:58:03.557Z,58.96
2023-05-04T23:00:31.872Z,58.91
2023-05-04T23:03:01.496Z,59.23
2023-05-04T23:05:29.806Z,59.78
2023-05-04T23:07:57.698Z,59.32
2023-05-04T23:10:26.146Z,59.36
2023-05-04T23:12:54.573Z,59.52
2023-05-04T23:15:24.418Z,59.63
2023-05-04T23:17:53.609Z,59.25
2023-05-04T23:20:23.281Z,59.76
2023-05-04T23:22:51.224Z,59.78
2023-05-04T23:25:19.891Z,60.11
2023-05-04T23:27:47.759Z,60.32
2023-05-04T23:30:15.692Z,61.17
2023-05-04T23:32:44.217Z,61.28
2023-05-04T23:35:12.089Z,61.12
2023-05-04T23:37:41.248Z,61.69
2023-05-04T23:40:10.926Z,62.27
2023-05-04T23:42:38.781Z,63.11
2023-05-04T23:45:07.867Z,64.23
2023-05-04T23:47:36.257Z,64.62
2023-05-04T23:50:04.239Z,65.62
2023-05-04T23:52:32.162Z,65.50
2023-05-04T23:55:01.890Z,68.17
2023-05-04T23:57:30.294Z,68.48
2023-05-04T23:59:58.014Z,68.46
